Time;durP1;ratioP1;P1;durP2;ratioP2;P2;SDS_P1;SDS_P2;PMS_P1;PMS_P2;Temp;Humidity;BMP_temperature;BMP_pressure;BME280_temperature;BME280_humidity;BME280_pressure;Samples;Min_cycle;Max_cycle;Signal;HPM_P1;HPM_P2
2022/05/28 00:01:18;;;;;;;;;;;;;;;16.05;41.38;100548.22;5072392;28;991;-59
2022/05/28 00:03:45;;;;;;;;;;;;;;;16.10;41.43;100556.44;5077137;28;1988;-59
2022/05/28 00:06:14;;;;;;;;;;;;;;;16.18;41.20;100555.88;5074780;28;853;-60
2022/05/28 00:08:40;;;;;;;;;;;;;;;16.16;41.26;100554.50;5076989;28;814;-61
2022/05/28 00:11:12;;;;;;;;;;;;;;;16.10;41.29;100537.22;5077363;28;1019;-59
2022/05/28 00:13:38;;;;;;;;;;;;;;;16.11;41.32;100547.13;5077197;28;805;-59
2022/05/28 00:16:03;;;;;;;;;;;;;;;16.12;41.37;100556.16;5070054;28;1177;-61
2022/05/28 00:18:31;;;;;;;;;;;;;;;16.14;41.44;100543.81;5057585;28;849;-61
2022/05/28 00:20:56;;;;;;;;;;;;;;;16.07;41.51;100538.63;5062534;28;853;-60
2022/05/28 00:23:22;;;;;;;;;;;;;;;16.10;41.45;100529.00;5057436;28;1915;-61
2022/05/28 00:25:48;;;;;;;;;;;;;;;16.17;41.29;100528.72;5057795;28;901;-60
2022/05/28 00:28:14;;;;;;;;;;;;;;;16.10;41.55;100530.94;5057468;28;926;-61
2022/05/28 00:30:40;;;;;;;;;;;;;;;16.06;41.26;100519.69;5057914;28;907;-61
2022/05/28 00:33:05;;;;;;;;;;;;;;;16.10;41.47;100525.44;5058549;28;853;-61
2022/05/28 00:35:31;;;;;;;;;;;;;;;16.12;41.20;100524.09;5057055;28;915;-62
2022/05/28 00:37:56;;;;;;;;;;;;;;;16.11;41.42;100516.94;5057233;28;1018;-60
2022/05/28 00:40:22;;;;;;;;;;;;;;;16.07;41.47;100522.19;5057461;28;822;-61
2022/05/28 00:42:48;;;;;;;;;;;;;;;16.10;41.16;100509.00;5057349;28;1910;-60
2022/05/28 00:45:13;;;;;;;;;;;;;;;16.04;41.14;100498.03;5061788;28;807;-61
2022/05/28 00:47:39;;;;;;;;;;;;;;;15.99;41.19;100497.22;5063643;28;818;-61
2022/05/28 00:50:05;;;;;;;;;;;;;;;16.07;41.14;100505.72;5039933;28;734;-61
2022/05/28 00:52:30;;;;;;;;;;;;;;;16.12;41.26;100495.81;5057250;28;766;-62
2022/05/28 00:54:56;;;;;;;;;;;;;;;16.08;41.26;100487.34;5038910;28;1183;-61
2022/05/28 00:57:21;;;;;;;;;;;;;;;16.05;41.19;100488.69;5040374;28;814;-61
2022/05/28 00:59:46;;;;;;;;;;;;;;;16.06;41.19;100493.09;5044037;28;815;-61
2022/05/28 01:02:22;;;;;;;;;;;;;;;16.04;41.26;100491.72;5040880;28;1905;-61
2022/05/28 01:04:55;;;;;;;;;;;;;;;16.01;41.62;100479.38;5056933;28;841;-61
2022/05/28 01:07:21;;;;;;;;;;;;;;;16.04;41.16;100480.75;5039019;28;766;-61
2022/05/28 01:09:46;;;;;;;;;;;;;;;16.05;41.15;100480.47;5057003;28;818;-61
2022/05/28 01:12:23;;;;;;;;;;;;;;;16.02;41.07;100475.56;5060361;28;818;-60
2022/05/28 01:14:52;;;;;;;;;;;;;;;16.04;40.99;100473.34;5056548;28;1064;-61
2022/05/28 01:17:23;;;;;;;;;;;;;;;15.99;41.36;100465.16;5063514;28;982;-62
2022/05/28 01:19:54;;;;;;;;;;;;;;;16.06;41.05;100465.66;5056909;28;840;-61
2022/05/28 01:22:29;;;;;;;;;;;;;;;15.99;41.04;100472.53;5055981;28;1977;-62
2022/05/28 01:25:01;;;;;;;;;;;;;;;16.03;41.06;100460.75;5056443;28;869;-62
2022/05/28 01:27:28;;;;;;;;;;;;;;;16.02;40.99;100456.34;5069637;28;746;-62
2022/05/28 01:29:54;;;;;;;;;;;;;;;16.00;41.26;100454.97;5057268;28;1058;-62
2022/05/28 01:32:20;;;;;;;;;;;;;;;16.02;40.96;100464.59;5068738;28;847;-63
2022/05/28 01:34:45;;;;;;;;;;;;;;;16.01;41.10;100473.91;5057111;28;825;-62
2022/05/28 01:37:11;;;;;;;;;;;;;;;16.00;41.08;100461.28;5042212;28;866;-61
2022/05/28 01:39:37;;;;;;;;;;;;;;;15.98;41.04;100463.50;5038795;28;822;-62
2022/05/28 01:42:02;;;;;;;;;;;;;;;15.94;41.17;100470.63;5038995;28;1913;-62
2022/05/28 01:44:28;;;;;;;;;;;;;;;15.91;41.27;100462.97;5038632;28;837;-60
2022/05/28 01:46:53;;;;;;;;;;;;;;;15.98;40.84;100458.00;5059501;28;771;-60
2022/05/28 01:49:19;;;;;;;;;;;;;;;16.04;40.91;100464.31;5056486;28;814;-61
2022/05/28 01:51:49;;;;;;;;;;;;;;;15.96;41.06;100476.63;5056048;28;923;-60
2022/05/28 01:54:15;;;;;;;;;;;;;;;15.89;41.18;100467.88;5038418;28;909;-60
2022/05/28 01:56:43;;;;;;;;;;;;;;;16.01;40.85;100468.41;5038629;28;758;-60
2022/05/28 01:59:09;;;;;;;;;;;;;;;16.04;40.85;100465.09;5038409;28;1006;-59
2022/05/28 02:01:35;;;;;;;;;;;;;;;15.96;40.83;100473.09;5042638;28;942;-62
2022/05/28 02:04:00;;;;;;;;;;;;;;;15.98;40.90;100474.47;5056259;28;1902;-60
2022/05/28 02:06:26;;;;;;;;;;;;;;;16.01;40.71;100475.84;5056130;28;777;-62
2022/05/28 02:08:52;;;;;;;;;;;;;;;15.98;40.77;100474.47;5056001;28;853;-63
2022/05/28 02:11:18;;;;;;;;;;;;;;;15.96;40.90;100470.34;5055909;28;833;-59
2022/05/28 02:13:47;;;;;;;;;;;;;;;15.99;40.90;100470.63;5058617;28;1298;-59
2022/05/28 02:16:14;;;;;;;;;;;;;;;15.89;41.01;100465.13;5065030;28;899;-59
2022/05/28 02:18:47;;;;;;;;;;;;;;;15.96;40.68;100460.19;5037967;28;782;-60
2022/05/28 02:21:18;;;;;;;;;;;;;;;16.06;40.83;100462.94;5038464;28;802;-60
2022/05/28 02:23:46;;;;;;;;;;;;;;;15.94;40.80;100462.41;5028154;28;1976;-59
2022/05/28 02:26:13;;;;;;;;;;;;;;;15.91;40.92;100458.28;5071894;28;804;-59
2022/05/28 02:28:38;;;;;;;;;;;;;;;15.98;41.02;100468.16;5062636;28;854;-59
2022/05/28 02:31:17;;;;;;;;;;;;;;;16.01;40.74;100468.41;5046263;28;797;-59
2022/05/28 02:33:43;;;;;;;;;;;;;;;15.94;41.04;100467.06;5042062;28;789;-60
2022/05/28 02:36:09;;;;;;;;;;;;;;;15.90;40.93;100466.78;5041701;28;854;-60
2022/05/28 02:38:34;;;;;;;;;;;;;;;15.93;41.14;100465.41;5059363;28;910;-59
2022/05/28 02:41:00;;;;;;;;;;;;;;;15.93;40.70;100454.44;5059665;28;860;-59
2022/05/28 02:43:25;;;;;;;;;;;;;;;15.96;41.03;100453.88;5059652;28;1894;-58
2022/05/28 02:45:51;;;;;;;;;;;;;;;15.94;40.67;100456.91;5061095;28;993;-59
2022/05/28 02:48:16;;;;;;;;;;;;;;;15.93;40.80;100458.00;5059554;28;794;-58
2022/05/28 02:50:42;;;;;;;;;;;;;;;15.97;40.74;100456.34;5059753;28;845;-59
2022/05/28 02:53:07;;;;;;;;;;;;;;;15.95;40.81;100466.78;5062540;28;962;-59
2022/05/28 02:55:33;;;;;;;;;;;;;;;15.93;40.83;100459.94;5059226;28;909;-59
2022/05/28 02:57:58;;;;;;;;;;;;;;;15.92;40.62;100459.09;5059222;28;842;-58
2022/05/28 03:00:24;;;;;;;;;;;;;;;15.91;40.93;100452.81;5059796;28;946;-59
2022/05/28 03:02:49;;;;;;;;;;;;;;;16.03;40.51;100460.75;5059153;28;1965;-59
2022/05/28 03:05:16;;;;;;;;;;;;;;;15.91;40.84;100457.47;5065441;28;1031;-59
2022/05/28 03:07:41;;;;;;;;;;;;;;;15.96;40.82;100460.19;5058773;28;870;-58
2022/05/28 03:10:07;;;;;;;;;;;;;;;15.98;40.61;100466.22;5059011;28;831;-59
2022/05/28 03:12:32;;;;;;;;;;;;;;;15.95;40.69;100463.22;5059080;28;1477;-59
2022/05/28 03:14:57;;;;;;;;;;;;;;;15.95;40.65;100471.44;5058839;28;1084;-59
2022/05/28 03:17:23;;;;;;;;;;;;;;;15.97;40.54;100475.56;5064274;28;939;-59
2022/05/28 03:19:48;;;;;;;;;;;;;;;15.97;40.73;100480.22;5065222;28;849;-61
2022/05/28 03:22:14;;;;;;;;;;;;;;;15.97;40.77;100480.22;5052908;28;1906;-63
2022/05/28 03:24:39;;;;;;;;;;;;;;;15.98;40.63;100479.13;5078400;28;795;-63
2022/05/28 03:27:05;;;;;;;;;;;;;;;15.90;40.60;100473.09;5078027;28;858;-63
2022/05/28 03:29:30;;;;;;;;;;;;;;;15.95;40.95;100469.53;5077642;28;937;-64
2022/05/28 03:31:56;;;;;;;;;;;;;;;15.96;40.57;100482.13;5062150;28;870;-64
2022/05/28 03:34:21;;;;;;;;;;;;;;;15.93;41.05;100488.16;5058883;28;853;-63
2022/05/28 03:36:46;;;;;;;;;;;;;;;16.15;41.50;100484.31;5058395;28;813;-62
2022/05/28 03:39:12;;;;;;;;;;;;;;;16.40;42.53;100481.47;5058668;28;814;-62
2022/05/28 03:41:37;;;;;;;;;;;;;;;16.53;43.35;100462.78;5057414;28;889;-62
2022/05/28 03:44:03;;;;;;;;;;;;;;;16.74;44.08;100464.31;5064833;28;1979;-60
2022/05/28 03:46:29;;;;;;;;;;;;;;;16.87;45.06;100456.56;5065631;28;884;-61
2022/05/28 03:49:18;;;;;;;;;;;;;;;17.05;45.41;100457.88;5058441;28;833;-61
2022/05/28 03:51:43;;;;;;;;;;;;;;;17.17;46.05;100457.53;5047462;28;1209;-60
2022/05/28 03:54:09;;;;;;;;;;;;;;;17.30;46.47;100456.06;5058605;28;791;-63
2022/05/28 03:56:35;;;;;;;;;;;;;;;17.25;46.44;100462.41;5063759;28;783;-58
2022/05/28 03:59:01;;;;;;;;;;;;;;;17.14;45.81;100466.31;5058940;28;846;-63
2022/05/28 04:01:26;;;;;;;;;;;;;;;16.95;44.92;100471.69;5064008;28;926;-60
2022/05/28 04:03:52;;;;;;;;;;;;;;;16.85;43.74;100469.78;5057227;28;1910;-62
2022/05/28 04:06:17;;;;;;;;;;;;;;;16.72;42.85;100466.53;5057288;28;806;-63
2022/05/28 04:08:43;;;;;;;;;;;;;;;16.65;42.67;100465.19;5060895;28;773;-63
2022/05/28 04:11:08;;;;;;;;;;;;;;;16.57;42.14;100464.66;5058093;28;852;-63
2022/05/28 04:13:34;;;;;;;;;;;;;;;16.53;42.02;100473.75;5058345;28;816;-62
2022/05/28 04:15:59;;;;;;;;;;;;;;;16.51;41.72;100470.47;5062189;28;1202;-64
2022/05/28 04:18:25;;;;;;;;;;;;;;;16.44;41.46;100468.03;5039215;28;1087;-62
2022/05/28 04:20:51;;;;;;;;;;;;;;;16.36;41.60;100477.66;5057849;28;775;-64
2022/05/28 04:23:17;;;;;;;;;;;;;;;16.41;41.23;100477.66;5064310;28;1913;-59
2022/05/28 04:25:42;;;;;;;;;;;;;;;16.36;41.16;100477.66;5060612;28;1056;-61
2022/05/28 04:28:09;;;;;;;;;;;;;;;16.33;41.04;100482.91;5076639;28;754;-61
2022/05/28 04:30:34;;;;;;;;;;;;;;;16.28;41.30;100488.38;5074037;28;783;-60
2022/05/28 04:33:00;;;;;;;;;;;;;;;16.27;40.95;100492.22;5057749;28;783;-60
2022/05/28 04:35:25;;;;;;;;;;;;;;;16.26;41.14;100491.41;5060801;28;974;-60
2022/05/28 04:37:51;;;;;;;;;;;;;;;16.22;40.95;100493.06;5057226;28;822;-62
2022/05/28 04:40:16;;;;;;;;;;;;;;;16.22;40.90;100495.81;5057668;28;818;-60
2022/05/28 04:42:42;;;;;;;;;;;;;;;16.22;41.19;100496.63;5057217;28;1914;-59
2022/05/28 04:45:07;;;;;;;;;;;;;;;16.14;41.27;100502.66;5057928;28;960;-62
2022/05/28 04:47:33;;;;;;;;;;;;;;;16.21;40.88;100505.13;5063163;28;837;-61
2022/05/28 04:49:58;;;;;;;;;;;;;;;16.19;40.96;100502.66;5076771;28;818;-61
2022/05/28 04:52:24;;;;;;;;;;;;;;;16.16;41.05;100513.34;5075679;28;866;-62
2022/05/28 04:54:49;;;;;;;;;;;;;;;16.15;40.95;100512.56;5076376;28;937;-61
2022/05/28 04:57:15;;;;;;;;;;;;;;;16.16;40.80;100521.59;5076309;28;833;-61
2022/05/28 04:59:40;;;;;;;;;;;;;;;16.08;40.84;100523.81;5070133;28;846;-59
2022/05/28 05:02:06;;;;;;;;;;;;;;;16.14;40.95;100526.53;5062127;28;1910;-58
2022/05/28 05:04:32;;;;;;;;;;;;;;;16.09;41.18;100519.16;5056730;28;925;-60
2022/05/28 05:06:58;;;;;;;;;;;;;;;16.08;40.99;100523.81;5056915;28;878;-58
2022/05/28 05:09:23;;;;;;;;;;;;;;;16.05;40.99;100527.09;5060947;28;874;-59
2022/05/28 05:11:49;;;;;;;;;;;;;;;16.13;40.90;100525.75;5071874;28;803;-58
2022/05/28 05:14:14;;;;;;;;;;;;;;;16.10;41.03;100522.72;5063155;28;1164;-60
2022/05/28 05:16:39;;;;;;;;;;;;;;;16.15;41.17;100517.22;5064315;28;887;-59
2022/05/28 05:19:05;;;;;;;;;;;;;;;16.11;41.14;100511.47;5056912;28;838;-57
2022/05/28 05:21:30;;;;;;;;;;;;;;;16.09;41.36;100516.41;5056592;28;767;-59
2022/05/28 05:23:56;;;;;;;;;;;;;;;16.12;41.30;100524.09;5056876;28;1978;-59
2022/05/28 05:26:22;;;;;;;;;;;;;;;16.20;41.17;100520.78;5062922;28;852;-59
2022/05/28 05:28:47;;;;;;;;;;;;;;;16.12;41.29;100518.59;5056760;28;798;-62
2022/05/28 05:31:13;;;;;;;;;;;;;;;16.15;41.06;100519.97;5057077;28;973;-59
2022/05/28 05:33:38;;;;;;;;;;;;;;;16.15;41.24;100522.72;5056771;28;910;-59
2022/05/28 05:36:04;;;;;;;;;;;;;;;16.11;41.53;100516.13;5056549;28;805;-59
2022/05/28 05:38:29;;;;;;;;;;;;;;;16.11;41.49;100522.44;5061849;28;791;-58
2022/05/28 05:40:55;;;;;;;;;;;;;;;16.11;41.36;100516.13;5056795;28;827;-59
2022/05/28 05:43:20;;;;;;;;;;;;;;;16.19;41.20;100518.31;5056554;28;1905;-60
2022/05/28 05:45:52;;;;;;;;;;;;;;;16.17;41.36;100512.28;5061907;28;766;-63
2022/05/28 05:48:18;;;;;;;;;;;;;;;16.21;41.18;100516.09;5056715;28;952;-61
2022/05/28 05:50:43;;;;;;;;;;;;;;;16.28;41.40;100522.13;5057865;28;838;-58
2022/05/28 05:53:09;;;;;;;;;;;;;;;16.24;41.35;100523.78;5056351;28;792;-62
2022/05/28 05:55:34;;;;;;;;;;;;;;;16.25;41.33;100517.19;5056294;28;786;-63
2022/05/28 05:58:00;;;;;;;;;;;;;;;16.21;41.57;100511.44;5057378;28;992;-62
2022/05/28 06:00:25;;;;;;;;;;;;;;;16.22;41.64;100507.59;5072643;28;1509;-62
2022/05/28 06:02:50;;;;;;;;;;;;;;;16.24;41.56;100510.91;5065312;28;1973;-62
2022/05/28 06:05:16;;;;;;;;;;;;;;;16.28;41.67;100500.16;5062949;28;822;-60
2022/05/28 06:07:41;;;;;;;;;;;;;;;16.23;41.92;100494.72;5056036;28;798;-60
2022/05/28 06:10:10;;;;;;;;;;;;;;;16.24;41.65;100490.84;5058969;28;707;-62
2022/05/28 06:12:35;;;;;;;;;;;;;;;16.29;41.67;100479.88;5067728;28;996;-59
2022/05/28 06:15:01;;;;;;;;;;;;;;;16.23;41.77;100479.06;5077650;28;1219;-61
2022/05/28 06:17:26;;;;;;;;;;;;;;;16.30;41.83;100467.81;5069216;28;1032;-62
2022/05/28 06:19:52;;;;;;;;;;;;;;;16.30;41.82;100464.22;5053584;28;742;-60
2022/05/28 06:22:17;;;;;;;;;;;;;;;16.30;41.73;100465.06;5055865;28;1910;-62
2022/05/28 06:24:42;;;;;;;;;;;;;;;16.31;41.67;100458.44;5074394;28;1233;-66
2022/05/28 06:27:08;;;;;;;;;;;;;;;16.22;41.96;100460.97;5073541;28;1202;-63
2022/05/28 06:29:33;;;;;;;;;;;;;;;16.30;41.90;100454.09;5071010;28;812;-61
2022/05/28 06:31:59;;;;;;;;;;;;;;;16.27;41.91;100454.66;5060342;28;990;-61
2022/05/28 06:34:24;;;;;;;;;;;;;;;16.29;41.97;100452.44;5059652;28;810;-61
2022/05/28 06:36:50;;;;;;;;;;;;;;;16.34;41.74;100459.81;5059540;28;862;-61
2022/05/28 06:39:15;;;;;;;;;;;;;;;16.31;41.96;100457.63;5057582;28;885;-63
2022/05/28 06:41:41;;;;;;;;;;;;;;;16.30;42.04;100448.59;5065204;28;829;-63
2022/05/28 06:44:07;;;;;;;;;;;;;;;16.35;41.92;100445.81;5059177;28;1984;-61
2022/05/28 06:46:32;;;;;;;;;;;;;;;16.46;41.72;100448.53;5066572;28;872;-59
2022/05/28 06:48:58;;;;;;;;;;;;;;;16.34;42.09;100443.34;5040411;28;802;-64
2022/05/28 06:51:23;;;;;;;;;;;;;;;16.33;41.92;100442.53;5059167;28;794;-61
2022/05/28 06:53:50;;;;;;;;;;;;;;;16.35;42.04;100437.59;5077850;28;746;-62
2022/05/28 06:56:16;;;;;;;;;;;;;;;16.37;41.83;100440.88;5071762;28;1048;-61
2022/05/28 06:58:43;;;;;;;;;;;;;;;16.37;41.42;100442.81;5078231;28;1024;-61
2022/05/28 07:01:09;;;;;;;;;;;;;;;16.29;41.75;100430.50;5065617;28;986;-58
2022/05/28 07:03:35;;;;;;;;;;;;;;;16.25;41.79;100429.41;5064773;28;1901;-59
2022/05/28 07:06:00;;;;;;;;;;;;;;;16.27;41.65;100427.22;5077723;28;826;-59
2022/05/28 07:08:26;;;;;;;;;;;;;;;16.40;42.93;100442.25;5064158;28;1251;-59
2022/05/28 07:10:52;;;;;;;;;;;;;;;16.35;42.40;100429.34;5064917;28;1165;-61
2022/05/28 07:13:18;;;;;;;;;;;;;;;16.33;42.05;100436.25;5064120;28;955;-61
2022/05/28 07:15:43;;;;;;;;;;;;;;;16.29;41.90;100426.94;5058266;28;969;-60
2022/05/28 07:18:09;;;;;;;;;;;;;;;16.37;41.39;100432.66;5068375;28;947;-59
2022/05/28 07:20:34;;;;;;;;;;;;;;;16.32;41.55;100435.41;5066369;28;819;-59
2022/05/28 07:23:05;;;;;;;;;;;;;;;16.25;41.45;100434.88;5058124;28;1906;-60
2022/05/28 07:25:31;;;;;;;;;;;;;;;16.32;41.37;100429.91;5057857;28;809;-60
2022/05/28 07:27:56;;;;;;;;;;;;;;;16.28;41.13;100431.59;5057712;28;791;-62
2022/05/28 07:30:22;;;;;;;;;;;;;;;16.27;41.24;100437.34;5058056;28;911;-62
2022/05/28 07:32:47;;;;;;;;;;;;;;;16.24;41.29;100425.00;5063682;28;916;-63
2022/05/28 07:35:13;;;;;;;;;;;;;;;16.23;41.44;100424.19;5058028;28;884;-63
2022/05/28 07:37:39;;;;;;;;;;;;;;;16.27;41.29;100418.16;5057935;28;837;-61
2022/05/28 07:40:04;;;;;;;;;;;;;;;16.22;41.43;100417.06;5057706;28;861;-63
2022/05/28 07:42:30;;;;;;;;;;;;;;;16.30;41.34;100420.31;5057552;28;1902;-61
2022/05/28 07:44:55;;;;;;;;;;;;;;;16.25;41.41;100415.69;5061922;28;802;-61
2022/05/28 07:47:21;;;;;;;;;;;;;;;16.26;41.11;100420.06;5065679;28;1115;-61
2022/05/28 07:49:46;;;;;;;;;;;;;;;16.28;41.48;100415.13;5071159;28;1041;-62
2022/05/28 07:52:12;;;;;;;;;;;;;;;16.29;41.19;100415.97;5063100;28;794;-62
2022/05/28 07:54:37;;;;;;;;;;;;;;;16.33;41.27;100419.78;5057078;28;786;-62
2022/05/28 07:57:03;;;;;;;;;;;;;;;16.32;41.48;100418.94;5058028;28;769;-61
2022/05/28 07:59:29;;;;;;;;;;;;;;;16.25;41.27;100416.50;5058066;28;910;-60
2022/05/28 08:01:55;;;;;;;;;;;;;;;16.23;41.31;100409.66;5057120;28;974;-61
2022/05/28 08:04:20;;;;;;;;;;;;;;;16.33;41.33;100406.88;5058080;28;1997;-61
2022/05/28 08:06:46;;;;;;;;;;;;;;;16.26;41.17;100403.63;5076914;28;846;-61
2022/05/28 08:09:11;;;;;;;;;;;;;;;16.25;41.25;100388.25;5076076;28;849;-61
2022/05/28 08:11:37;;;;;;;;;;;;;;;16.25;41.31;100396.47;5064386;28;889;-60
2022/05/28 08:14:02;;;;;;;;;;;;;;;16.29;41.65;100391.25;5056956;28;991;-59
2022/05/28 08:16:28;;;;;;;;;;;;;;;16.29;41.30;100397.56;5062120;28;895;-58
2022/05/28 08:18:53;;;;;;;;;;;;;;;16.31;41.48;100402.75;5059120;28;777;-62
2022/05/28 08:24:03;;;;;;;;;;;;;;;16.29;41.21;100400.31;5062498;28;1980;-60
2022/05/28 08:26:29;;;;;;;;;;;;;;;16.35;41.10;100407.41;5057112;28;1139;-61
2022/05/28 08:28:54;;;;;;;;;;;;;;;16.30;41.38;100393.72;5056457;28;789;-64
2022/05/28 08:31:20;;;;;;;;;;;;;;;16.33;41.26;100393.16;5060261;28;881;-61
2022/05/28 08:33:45;;;;;;;;;;;;;;;16.34;41.33;100400.28;5056907;28;842;-60
2022/05/28 08:36:11;;;;;;;;;;;;;;;16.31;41.31;100400.03;5059303;28;943;-61
2022/05/28 08:38:37;;;;;;;;;;;;;;;16.25;41.58;100401.97;5056312;28;853;-61
2022/05/28 08:41:15;;;;;;;;;;;;;;;16.30;41.46;100395.63;5067800;28;782;-61
2022/05/28 08:43:54;;;;;;;;;;;;;;;16.27;41.16;100396.19;5057049;28;1973;-59
2022/05/28 08:46:20;;;;;;;;;;;;;;;16.30;41.08;100388.25;5048305;28;943;-59
2022/05/28 08:48:50;;;;;;;;;;;;;;;16.27;41.22;100396.19;5044711;28;773;-59
2022/05/28 08:51:35;;;;;;;;;;;;;;;16.36;41.04;100397.28;5056945;28;806;-59
2022/05/28 08:54:04;;;;;;;;;;;;;;;16.30;41.34;100403.84;5057496;28;947;-59
2022/05/28 08:56:29;;;;;;;;;;;;;;;16.29;41.28;100403.06;5075535;28;888;-59
2022/05/28 08:59:03;;;;;;;;;;;;;;;16.29;41.25;100403.06;5057049;28;894;-61
2022/05/28 09:01:28;;;;;;;;;;;;;;;16.29;41.00;100394.00;5065277;28;839;-59
2022/05/28 09:03:59;;;;;;;;;;;;;;;16.23;41.28;100390.47;5037966;28;1965;-59
2022/05/28 09:06:31;;;;;;;;;;;;;;;16.35;41.08;100398.34;5056120;28;918;-59
2022/05/28 09:08:57;;;;;;;;;;;;;;;16.29;41.27;100389.34;5055695;28;880;-61
2022/05/28 09:11:28;;;;;;;;;;;;;;;16.21;41.27;100385.22;5070795;28;845;-62
2022/05/28 09:13:54;;;;;;;;;;;;;;;16.30;41.36;100388.25;5041856;28;1242;-62
2022/05/28 09:16:21;;;;;;;;;;;;;;;16.33;41.20;100392.34;5062692;28;695;-62
2022/05/28 09:18:47;;;;;;;;;;;;;;;16.25;41.35;100386.31;5056126;28;727;-59
2022/05/28 09:21:14;;;;;;;;;;;;;;;16.31;41.32;100378.06;5056012;28;968;-59
2022/05/28 09:23:41;;;;;;;;;;;;;;;16.27;41.50;100388.81;5037973;28;1918;-57
2022/05/28 09:26:07;;;;;;;;;;;;;;;16.28;41.65;100373.97;5038072;28;977;-57
2022/05/28 09:28:36;;;;;;;;;;;;;;;16.21;41.49;100384.41;5048947;28;1139;-59
2022/05/28 09:31:07;;;;;;;;;;;;;;;16.25;41.55;100385.50;5070212;28;827;-59
2022/05/28 09:34:05;;;;;;;;;;;;;;;16.24;41.50;100376.47;5038276;28;738;-59
2022/05/28 09:36:52;;;;;;;;;;;;;;;16.27;41.37;100383.31;5012186;28;1233;-59
2022/05/28 09:39:25;;;;;;;;;;;;;;;16.25;41.31;100377.28;5037761;28;916;-58
2022/05/28 09:42:00;;;;;;;;;;;;;;;16.28;41.38;100384.13;5055094;28;1186;-58
2022/05/28 09:44:32;;;;;;;;;;;;;;;16.28;41.23;100378.63;5062130;28;1909;-58
2022/05/28 09:47:10;;;;;;;;;;;;;;;16.27;41.08;100382.47;5070105;28;762;-58
2022/05/28 09:49:45;;;;;;;;;;;;;;;16.35;42.28;100382.72;5055644;28;814;-55
2022/05/28 09:52:10;;;;;;;;;;;;;;;16.48;43.07;100391.44;5057141;28;897;-57
2022/05/28 09:54:36;;;;;;;;;;;;;;;16.42;42.46;100391.47;5054810;28;821;-57
2022/05/28 09:57:09;;;;;;;;;;;;;;;16.40;42.00;100390.13;5055304;28;783;-60
2022/05/28 09:59:43;;;;;;;;;;;;;;;16.45;42.11;100390.06;5065188;28;803;-57
2022/05/28 10:02:16;;;;;;;;;;;;;;;16.45;41.73;100390.06;5057095;28;870;-57
2022/05/28 10:04:43;;;;;;;;;;;;;;;16.41;41.65;100399.97;5039173;28;1101;-57
2022/05/28 10:07:08;;;;;;;;;;;;;;;16.33;41.21;100387.66;5061492;28;807;-57
2022/05/28 10:09:34;;;;;;;;;;;;;;;16.33;40.98;100389.59;5057044;28;721;-58
2022/05/28 10:12:00;;;;;;;;;;;;;;;16.36;40.86;100398.06;5070583;28;834;-57
2022/05/28 10:14:28;;;;;;;;;;;;;;;16.24;41.14;100378.38;5036445;28;1150;-57
2022/05/28 10:16:58;;;;;;;;;;;;;;;16.32;40.97;100385.22;5061058;28;846;-58
2022/05/28 10:19:31;;;;;;;;;;;;;;;16.20;41.20;100386.34;5038562;28;1137;-58
2022/05/28 10:21:57;;;;;;;;;;;;;;;16.29;41.07;100370.13;5037552;28;778;-57
2022/05/28 10:24:22;;;;;;;;;;;;;;;16.26;41.03;100378.94;5054293;28;1988;-58
2022/05/28 10:26:57;;;;;;;;;;;;;;;16.22;41.10;100375.91;5036764;28;822;-57
2022/05/28 10:29:29;;;;;;;;;;;;;;;16.28;40.84;100364.94;5055032;28;817;-58
2022/05/28 10:31:54;;;;;;;;;;;;;;;16.28;40.88;100368.47;5062252;28;846;-57
2022/05/28 10:34:36;;;;;;;;;;;;;;;16.25;40.94;100364.38;5054722;28;1538;-56
2022/05/28 10:37:20;;;;;;;;;;;;;;;16.25;40.89;100364.38;5074645;28;866;-58
2022/05/28 10:39:47;;;;;;;;;;;;;;;16.28;41.12;100365.72;5074615;28;750;-57
2022/05/28 10:42:12;;;;;;;;;;;;;;;16.24;41.02;100356.44;5058828;28;1424;-56
2022/05/28 10:44:38;;;;;;;;;;;;;;;16.30;41.08;100358.06;5060914;28;1287;-56
2022/05/28 10:47:04;;;;;;;;;;;;;;;16.23;41.09;100366.59;5062976;28;1451;-56
2022/05/28 10:49:35;;;;;;;;;;;;;;;16.27;41.20;100363.28;5055086;28;949;-56
2022/05/28 10:52:19;;;;;;;;;;;;;;;16.21;40.98;100357.81;5057895;28;811;-56
2022/05/28 10:54:49;;;;;;;;;;;;;;;16.26;41.18;100359.72;5070685;28;838;-56
2022/05/28 10:57:30;;;;;;;;;;;;;;;16.29;41.01;100356.41;5048983;28;904;-56
2022/05/28 11:00:04;;;;;;;;;;;;;;;16.24;41.23;100350.94;5058942;28;826;-56
2022/05/28 11:02:29;;;;;;;;;;;;;;;16.19;41.27;100353.72;5072050;28;1967;-56
2022/05/28 11:05:07;;;;;;;;;;;;;;;16.22;41.40;100344.94;5076688;28;781;-56
2022/05/28 11:07:51;;;;;;;;;;;;;;;16.24;41.21;100350.94;5057978;28;927;-56
2022/05/28 11:10:16;;;;;;;;;;;;;;;16.22;41.02;100339.44;5058767;28;848;-57
2022/05/28 11:12:54;;;;;;;;;;;;;;;16.29;41.12;100337.19;5058433;28;757;-56
2022/05/28 11:15:38;;;;;;;;;;;;;;;16.29;41.26;100328.97;5039957;28;1045;-57
2022/05/28 11:18:11;;;;;;;;;;;;;;;16.21;41.49;100337.78;5058303;28;798;-56
2022/05/28 11:20:42;;;;;;;;;;;;;;;16.29;41.15;100344.63;5057849;28;841;-56
2022/05/28 11:23:26;;;;;;;;;;;;;;;16.26;41.06;100337.78;5043706;28;1906;-56
2022/05/28 11:26:06;;;;;;;;;;;;;;;16.17;41.19;100337.56;5058105;28;814;-58
2022/05/28 11:28:50;;;;;;;;;;;;;;;16.24;41.14;100335.31;5057872;28;806;-57
2022/05/28 11:31:19;;;;;;;;;;;;;;;16.28;41.28;100332.81;5070716;28;849;-59
2022/05/28 11:33:44;;;;;;;;;;;;;;;16.29;41.25;100331.72;5075315;28;819;-56
2022/05/28 11:36:11;;;;;;;;;;;;;;;16.24;40.97;100320.75;5039534;28;841;-58
2022/05/28 11:38:38;;;;;;;;;;;;;;;16.27;41.06;100319.38;5040116;28;838;-58
2022/05/28 11:41:17;;;;;;;;;;;;;;;16.34;40.99;100323.47;5058465;28;826;-58
2022/05/28 11:43:53;;;;;;;;;;;;;;;16.25;41.08;100330.63;5049844;28;1988;-59
2022/05/28 11:46:30;;;;;;;;;;;;;;;16.13;41.06;100317.28;5054117;28;958;-57
2022/05/28 11:51:52;;;;;;;;;;;;;;;16.23;41.16;100314.47;5071878;28;842;-57
2022/05/28 11:54:28;;;;;;;;;;;;;;;16.12;41.33;100314.78;5076556;28;806;-57
2022/05/28 11:56:54;;;;;;;;;;;;;;;16.17;41.29;100320.25;5057855;28;865;-60
2022/05/28 11:59:24;;;;;;;;;;;;;;;16.17;41.27;100321.09;5058738;28;861;-61
2022/05/28 12:01:55;;;;;;;;;;;;;;;16.17;41.26;100323.00;5050654;28;895;-59
2022/05/28 12:04:21;;;;;;;;;;;;;;;16.19;41.21;100323.53;5059069;28;1986;-58
2022/05/28 12:07:06;;;;;;;;;;;;;;;16.14;40.95;100318.88;5059261;28;912;-58
2022/05/28 12:09:33;;;;;;;;;;;;;;;16.19;40.96;100321.63;5059461;28;1148;-58
2022/05/28 12:11:58;;;;;;;;;;;;;;;16.21;40.71;100321.31;5047535;28;888;-57
2022/05/28 12:14:31;;;;;;;;;;;;;;;16.16;40.95;100318.59;5057653;28;1082;-58
2022/05/28 12:17:08;;;;;;;;;;;;;;;16.17;40.88;100317.50;5066804;28;903;-58
2022/05/28 12:19:34;;;;;;;;;;;;;;;16.12;40.82;100314.78;5042457;28;994;-58
2022/05/28 12:22:09;;;;;;;;;;;;;;;16.18;41.03;100313.66;5060778;28;849;-57
2022/05/28 12:24:40;;;;;;;;;;;;;;;16.16;40.74;100307.63;5055139;28;1918;-59
2022/05/28 12:29:34;;;;;;;;;;;;;;;16.07;40.76;100305.50;5056511;28;759;-58
2022/05/28 12:32:12;;;;;;;;;;;;;;;16.13;40.86;100299.97;5056625;28;793;-58
2022/05/28 12:34:40;;;;;;;;;;;;;;;16.11;40.70;100299.44;5072876;28;731;-58
2022/05/28 12:37:09;;;;;;;;;;;;;;;16.13;40.82;100298.06;5075733;28;804;-56
2022/05/28 12:39:37;;;;;;;;;;;;;;;16.07;40.85;100296.44;5043226;28;957;-62
2022/05/28 12:42:04;;;;;;;;;;;;;;;15.99;41.00;100284.16;5038600;28;806;-61
2022/05/28 12:44:29;;;;;;;;;;;;;;;16.06;40.97;100286.56;5073453;28;1914;-58
2022/05/28 12:46:56;;;;;;;;;;;;;;;16.05;41.02;100293.16;5070385;28;812;-58
2022/05/28 12:49:33;;;;;;;;;;;;;;;16.02;41.00;100278.09;5051368;28;1142;-57
2022/05/28 12:52:17;;;;;;;;;;;;;;;16.02;40.99;100289.06;5043818;28;1113;-60
2022/05/28 12:54:43;;;;;;;;;;;;;;;16.04;40.95;100273.13;5069687;28;845;-59
2022/05/28 12:57:09;;;;;;;;;;;;;;;16.08;40.78;100281.63;5056589;28;736;-59
2022/05/28 12:59:35;;;;;;;;;;;;;;;16.07;40.65;100275.34;5056427;28;822;-58
2022/05/28 13:02:01;;;;;;;;;;;;;;;16.12;40.54;100276.38;5058912;28;860;-60
2022/05/28 13:04:30;;;;;;;;;;;;;;;16.04;40.77;100286.03;5062466;28;1894;-57
2022/05/28 13:06:56;;;;;;;;;;;;;;;16.02;40.33;100278.09;5044047;28;1044;-57